createdAt,value
2017-10-17T00:00:44.533Z,41.17
2017-10-17T00:05:47.693Z,29.73
2017-10-17T00:10:50.890Z,30.03
2017-10-17T00:15:54.709Z,34.87
2017-10-17T00:20:57.886Z,32.10
2017-10-17T00:26:01.128Z,30.30
2017-10-17T00:31:04.395Z,32.70
2017-10-17T00:36:08.649Z,37.58
2017-10-17T00:41:11.837Z,34.77
2017-10-17T00:46:15.035Z,30.57
2017-10-17T00:51:21.686Z,26.60
2017-10-17T00:56:25.634Z,33.70
2017-10-17T01:01:28.855Z,90.90
2017-10-17T01:06:32.023Z,55.47
2017-10-17T01:11:35.193Z,42.20
2017-10-17T01:16:38.406Z,40.20
2017-10-17T01:21:41.764Z,35.80
2017-10-17T01:26:45.711Z,36.53
2017-10-17T01:31:48.885Z,33.50
2017-10-17T01:36:52.825Z,27.95
2017-10-17T01:41:55.982Z,33.83
2017-10-17T01:46:59.153Z,27.83
2017-10-17T01:52:16.378Z,32.07
2017-10-17T01:57:19.630Z,34.53
2017-10-17T02:02:22.809Z,28.70
2017-10-17T02:07:26.118Z,36.80
2017-10-17T02:12:29.286Z,27.87
2017-10-17T02:17:33.171Z,27.53
2017-10-17T02:22:38.996Z,22.70
2017-10-17T02:27:42.262Z,32.27
2017-10-17T02:32:45.436Z,28.63
2017-10-17T02:37:48.601Z,25.50
2017-10-17T02:58:49.661Z,30.23
2017-10-17T03:03:53.586Z,28.10
2017-10-17T03:08:56.861Z,32.83
2017-10-17T03:14:06.682Z,28.20
2017-10-17T03:19:09.842Z,28.23
2017-10-17T03:24:17.494Z,30.10
2017-10-17T03:29:20.714Z,27.83
2017-10-17T03:34:23.875Z,29.80
2017-10-17T03:39:28.626Z,33.40
2017-10-17T03:44:48.885Z,32.40
2017-10-17T03:49:52.903Z,30.50
2017-10-17T03:54:56.069Z,31.77
2017-10-17T04:00:00.100Z,36.40
2017-10-17T04:21:26.989Z,46.77
2017-10-17T04:26:34.986Z,38.10
2017-10-17T04:31:42.649Z,36.93
2017-10-17T04:36:54.179Z,33.77
2017-10-17T04:58:06.662Z,58.47
2017-10-17T05:03:27.626Z,35.87
2017-10-17T05:24:32.118Z,28.60
2017-10-17T05:29:35.297Z,29.47
2017-10-17T05:34:38.445Z,34.33
2017-10-17T05:55:38.616Z,25.30
2017-10-17T06:05:54.512Z,43.57
2017-10-17T06:10:57.699Z,32.10
2017-10-17T06:16:00.942Z,42.73
2017-10-17T06:21:04.178Z,47.63
2017-10-17T06:26:07.338Z,67.13
2017-10-17T06:31:10.527Z,40.97
2017-10-17T06:36:13.717Z,44.30
2017-10-17T06:41:16.901Z,45.37
2017-10-17T06:46:20.851Z,41.10
2017-10-17T06:51:24.038Z,35.07
2017-10-17T06:56:27.229Z,41.63
2017-10-17T07:01:31.170Z,42.70
2017-10-17T07:06:34.557Z,30.30
2017-10-17T07:11:37.942Z,33.73
2017-10-17T07:16:41.198Z,26.33
2017-10-17T07:21:44.416Z,29.03
2017-10-17T07:26:47.822Z,30.53
2017-10-17T07:31:52.997Z,21.67
2017-10-17T07:36:56.229Z,26.87
2017-10-17T07:41:59.494Z,31.70
2017-10-17T07:47:02.674Z,31.15
2017-10-17T07:52:06.634Z,25.33
2017-10-17T07:57:09.833Z,29.87
2017-10-17T08:02:13.012Z,26.53
2017-10-17T08:07:16.962Z,34.20
2017-10-17T08:12:20.141Z,34.40
2017-10-17T08:17:24.101Z,32.63
2017-10-17T08:22:27.361Z,48.57
2017-10-17T08:27:30.626Z,42.10
2017-10-17T08:32:33.835Z,38.07
2017-10-17T08:37:37.069Z,39.10
2017-10-17T08:42:40.275Z,46.07
2017-10-17T08:47:43.454Z,55.50
2017-10-17T08:52:46.647Z,56.27
2017-10-17T08:57:49.912Z,54.67
2017-10-17T09:02:53.892Z,55.00
2017-10-17T09:07:57.117Z,57.07
2017-10-17T09:13:00.345Z,54.63
2017-10-17T09:18:04.815Z,65.03
2017-10-17T09:23:08.014Z,60.63
2017-10-17T09:28:16.899Z,40.67
2017-10-17T09:33:20.237Z,48.23
2017-10-17T09:38:24.807Z,40.70
2017-10-17T09:43:28.768Z,36.00
2017-10-17T09:48:32.039Z,37.40
2017-10-17T09:53:36.665Z,33.30
2017-10-17T09:58:40.667Z,36.63
2017-10-17T10:03:43.861Z,36.63
2017-10-17T10:08:47.062Z,35.33
2017-10-17T10:13:50.262Z,30.60
2017-10-17T10:18:53.471Z,33.93
2017-10-17T10:23:56.999Z,32.63
2017-10-17T10:29:00.202Z,34.83
2017-10-17T10:34:03.410Z,34.93
2017-10-17T10:39:06.633Z,32.00
2017-10-17T10:44:09.867Z,37.40
2017-10-17T10:49:13.059Z,32.30
2017-10-17T10:54:17.046Z,36.33
2017-10-17T10:59:20.241Z,26.50
2017-10-17T11:04:24.288Z,33.67
2017-10-17T11:09:27.634Z,32.97
2017-10-17T11:14:31.636Z,33.43
2017-10-17T11:23:13.427Z,40.00
2017-10-17T11:28:16.663Z,30.30
2017-10-17T11:33:19.935Z,30.20
2017-10-17T11:38:23.183Z,29.93
2017-10-17T11:43:44.230Z,32.90
2017-10-17T11:48:48.274Z,29.90
2017-10-17T11:53:52.246Z,26.43
2017-10-17T11:58:55.447Z,33.50
2017-10-17T12:03:58.758Z,34.27
2017-10-17T12:09:02.586Z,31.03
2017-10-17T12:14:05.846Z,26.57
2017-10-17T12:19:09.038Z,26.80
2017-10-17T12:24:13.144Z,31.77
2017-10-17T12:29:16.337Z,21.70
2017-10-17T12:34:19.519Z,24.55
2017-10-17T12:39:22.771Z,35.97
2017-10-17T12:44:25.977Z,27.07
2017-10-17T12:49:29.230Z,24.77
2017-10-17T12:54:32.409Z,24.87
2017-10-17T12:59:36.392Z,22.75
2017-10-17T13:04:39.693Z,21.67
2017-10-17T13:09:43.101Z,23.75
2017-10-17T13:14:46.312Z,23.53
2017-10-17T13:19:49.576Z,23.63
2017-10-17T13:24:52.763Z,18.93
2017-10-17T13:29:57.049Z,18.92
2017-10-17T13:35:00.507Z,21.57
2017-10-17T13:40:04.669Z,18.73
2017-10-17T13:45:07.945Z,19.37
2017-10-17T13:50:11.986Z,24.57
2017-10-17T13:55:15.194Z,26.40
2017-10-17T14:00:18.434Z,23.83
2017-10-17T14:05:23.105Z,22.43
2017-10-17T14:10:27.283Z,31.12
2017-10-17T14:15:30.484Z,19.67
2017-10-17T14:20:33.766Z,26.80
2017-10-17T14:25:37.055Z,27.13
2017-10-17T14:30:40.309Z,26.77
2017-10-17T14:35:43.533Z,21.63
2017-10-17T14:40:46.879Z,27.37
2017-10-17T14:45:50.101Z,30.30
2017-10-17T14:50:54.206Z,22.90
2017-10-17T14:55:57.401Z,20.63
2017-10-17T15:01:00.733Z,22.00
2017-10-17T15:06:03.983Z,22.37
2017-10-17T15:11:07.216Z,31.83
2017-10-17T15:16:10.429Z,25.30
2017-10-17T15:21:13.661Z,22.57
2017-10-17T15:26:16.854Z,22.02
2017-10-17T15:31:20.062Z,31.93
2017-10-17T15:36:23.866Z,25.33
2017-10-17T15:41:27.233Z,30.90
2017-10-17T15:46:31.226Z,30.03
2017-10-17T15:51:34.499Z,21.90
2017-10-17T15:56:37.803Z,29.73
2017-10-17T16:01:41.050Z,27.30
2017-10-17T16:06:44.247Z,26.53
2017-10-17T16:11:47.443Z,31.27
2017-10-17T16:16:50.637Z,27.60
2017-10-17T16:21:53.847Z,30.83
2017-10-17T16:26:57.041Z,32.90
2017-10-17T16:32:01.421Z,34.67
2017-10-17T16:37:04.656Z,31.60
2017-10-17T16:42:07.888Z,37.70
2017-10-17T16:47:11.158Z,69.53
2017-10-17T16:52:14.359Z,43.00
2017-10-17T16:57:17.540Z,41.93
2017-10-17T17:02:20.770Z,58.63
2017-10-17T17:07:24.067Z,42.47
2017-10-17T17:12:27.301Z,29.53
2017-10-17T17:17:30.606Z,37.40
2017-10-17T17:22:33.822Z,29.87
2017-10-17T17:27:37.118Z,32.50
2017-10-17T17:32:43.771Z,35.07
2017-10-17T17:37:46.999Z,33.20
2017-10-17T17:42:50.233Z,34.00
2017-10-17T17:47:53.480Z,30.17
2017-10-17T17:52:56.696Z,36.20
2017-10-17T17:57:59.888Z,38.43
2017-10-17T18:03:03.118Z,35.40
2017-10-17T18:08:07.262Z,30.70
2017-10-17T18:13:10.492Z,32.87
2017-10-17T18:18:13.779Z,33.30
2017-10-17T18:23:17.023Z,33.80
2017-10-17T18:28:22.624Z,46.53
2017-10-17T18:33:25.938Z,32.60
2017-10-17T18:38:29.262Z,39.10
2017-10-17T18:43:32.498Z,57.35
2017-10-17T18:48:36.384Z,43.23
2017-10-17T18:53:39.629Z,35.65
2017-10-17T18:58:42.820Z,41.93
2017-10-17T19:03:46.714Z,36.60
2017-10-17T19:08:49.953Z,46.30
2017-10-17T19:13:53.369Z,34.10
2017-10-17T19:18:56.666Z,45.13
2017-10-17T19:23:59.962Z,47.73
2017-10-17T19:29:03.213Z,37.10
2017-10-17T19:34:07.185Z,46.03
2017-10-17T19:39:11.849Z,40.90
2017-10-17T19:44:15.168Z,35.43
2017-10-17T19:49:18.445Z,41.03
2017-10-17T19:54:21.772Z,37.80
2017-10-17T19:59:25.682Z,49.95
2017-10-17T20:04:28.976Z,35.80
2017-10-17T20:09:32.211Z,43.77
2017-10-17T20:14:35.437Z,38.57
2017-10-17T20:19:38.639Z,47.20
2017-10-17T20:24:41.819Z,33.83
2017-10-17T20:29:45.186Z,36.27
2017-10-17T20:34:48.439Z,39.83
2017-10-17T20:39:51.665Z,40.40
2017-10-17T20:44:54.910Z,35.80
2017-10-17T20:49:58.881Z,41.03
2017-10-17T20:55:02.109Z,40.47
2017-10-17T21:00:05.322Z,45.92
2017-10-17T21:05:08.544Z,33.20
2017-10-17T21:10:12.509Z,38.70
2017-10-17T21:15:15.879Z,38.27
2017-10-17T21:20:19.812Z,43.90
2017-10-17T21:25:23.810Z,40.03
2017-10-17T21:30:26.994Z,39.67
2017-10-17T21:35:30.268Z,38.90
2017-10-17T21:40:33.467Z,36.63
2017-10-17T21:45:36.706Z,43.17
2017-10-17T21:50:39.947Z,39.63
2017-10-17T21:55:43.136Z,32.13
2017-10-17T22:01:08.061Z,38.00
2017-10-17T22:06:11.269Z,35.90
2017-10-17T22:11:14.480Z,34.30
2017-10-17T22:16:17.787Z,37.43
2017-10-17T22:21:21.015Z,37.50
2017-10-17T22:26:24.984Z,36.77
2017-10-17T22:31:29.354Z,35.83
2017-10-17T22:36:32.546Z,36.23
2017-10-17T22:41:35.778Z,32.03
2017-10-17T22:46:38.989Z,42.47
2017-10-17T22:51:42.189Z,39.33
2017-10-17T22:56:45.381Z,41.90
2017-10-17T23:01:48.588Z,52.93
2017-10-17T23:06:51.832Z,38.33
2017-10-17T23:11:55.831Z,45.93
2017-10-17T23:17:16.899Z,41.53
2017-10-17T23:22:35.310Z,42.73
2017-10-17T23:27:38.661Z,39.15
2017-10-17T23:32:42.036Z,42.77
2017-10-17T23:37:45.435Z,41.67
2017-10-17T23:42:48.612Z,38.07
2017-10-17T23:47:51.926Z,40.15
2017-10-17T23:52:55.150Z,39.53
2017-10-17T23:57:58.352Z,42.78
